KLWV/LWV METAR and TAF weather

Enter ICAO airport designator
Station Type Date Time Source
KLWV METAR 2022/06/25 22:53 UTC NOAA

KLWV 252253Z AUTO 15005KT 10SM CLR 32/19 A2995 RMK AO2 SLP139 T03170194


Station Type Date Time Source
KLWV Decoded METAR 2022/06/25 22:53 UTC NOAA

LAWRENCEVILLE-VINCENNES INTERNATIONAL , IL, United States (KLWV) 38-46N 87-36W 131M
Jun 25, 2022 - 06:53 PM EDT / 2022.06.25 2253 UTC
Wind: from the SSE (150 degrees) at 6 MPH (5 KT):0
Visibility: 10 mile(s):0
Sky conditions: clear
Temperature: 89.1 F (31.7 C)
Dew Point: 66.9 F (19.4 C)
Relative Humidity: 48%
Pressure (altimeter): 29.95 in. Hg (1014 hPa)
ob: KLWV 252253Z AUTO 15005KT 10SM CLR 32/19 A2995 RMK AO2 SLP139 T03170194
cycle: 23

Station Type Date Time Source
KLWV TAF UTC NOAA

Error!

Example: see airport list